WetterOnline ( https://www.wetteronline.de )

Wetter aktuell Waibstadt

Aktuelles Wetter: Waibstadt (237m)

6-stündlich | Neueste Meldungen
Ortszeit Temperatur Wetter
Sa, 01.10. 14:00 11.3° C bewölkt
Sa, 01.10. 8:00 7.4° C leichter Regen
Sa, 01.10. 2:00 5.9° C Nebel
Fr, 30.09. 20:00 11.5° C wolkenlos
Fr, 30.09. 14:00 16.0° C wolkig
Fr, 30.09. 8:00 5.4° C fast wolkenlos
Fr, 30.09. 2:00 7.4° C bewölkt
Do, 29.09. 20:00 10.8° C wolkig
Ortszeit Temperatur Wetter
Sa, 01.10. 14:00 11.3° C bewölkt
Sa, 01.10. 13:50 11.3° C bewölkt
Sa, 01.10. 13:40 11.3° C bewölkt
Sa, 01.10. 13:30 11.3° C bedeckt
Sa, 01.10. 13:20 11.3° C bedeckt
Sa, 01.10. 13:10 11.1° C bewölkt
Sa, 01.10. 13:00 10.8° C bewölkt
Sa, 01.10. 12:30 10.5° C bewölkt
Sa, 01.10. 12:00 10.3° C leichter Regen
Sa, 01.10. 11:30 10.1° C leichter Regen
Sa, 01.10. 11:00 9.9° C leichter Regen
Ortszeit Relative Feuchte Sichtweite
Sa, 01.10. 14:00 92% 15 km
Sa, 01.10. 8:00 93% 7 km
Sa, 01.10. 2:00 97% 5.0 km
Fr, 30.09. 20:00 79% 45 km
Fr, 30.09. 14:00 59% 40 km
Fr, 30.09. 8:00 97% 9 km
Fr, 30.09. 2:00 97% 16 km
Do, 29.09. 20:00 81% 45 km
Ortszeit Relative Feuchte Sichtweite
Sa, 01.10. 14:00 92% 15 km
Sa, 01.10. 13:50 92% -
Sa, 01.10. 13:40 92% -
Sa, 01.10. 13:30 92% 50 km
Sa, 01.10. 13:20 92% -
Sa, 01.10. 13:10 92% -
Sa, 01.10. 13:00 92% 50 km
Sa, 01.10. 12:30 92% 60 km
Sa, 01.10. 12:00 92% 40 km
Sa, 01.10. 11:30 92% 16 km
Sa, 01.10. 11:00 93% 15 km
Ortszeit Niederschlagsmenge Niederschlagsart
Sa, 01.10. 14:00 7 l/m2 in 6 Std. Regen
Sa, 01.10. 8:00 1 l/m2 in 12 Std. Regen
Sa, 01.10. 2:00 0.0 l/m2 in 6 Std. -
Fr, 30.09. 20:00 0.0 l/m2 in 12 Std. -
Fr, 30.09. 14:00 0.0 l/m2 in 6 Std. -
Fr, 30.09. 8:00 0.0 l/m2 in 12 Std. -
Fr, 30.09. 2:00 0.0 l/m2 in 6 Std. -
Do, 29.09. 20:00 0.0 l/m2 in 12 Std. -
Ortszeit Niederschlagsmenge Niederschlagsart
Sa, 01.10. 14:00 <0.05 l/m2 in 1 Std. Regen
Sa, 01.10. 13:50 keine Meldung -
Sa, 01.10. 13:40 keine Meldung -
Sa, 01.10. 13:30 <0.05 l/m2 in 1 Std. Schnee
Sa, 01.10. 13:20 keine Meldung -
Sa, 01.10. 13:10 keine Meldung -
Sa, 01.10. 13:00 <0.05 l/m2 in 1 Std. Regen
Sa, 01.10. 12:30 <0.05 l/m2 in 1 Std. Schneeregen
Sa, 01.10. 12:00 1.4 l/m2 in 1 Std. Regen
Sa, 01.10. 11:30 1.3 l/m2 in 1 Std. -
Sa, 01.10. 11:00 1.7 l/m2 in 1 Std. Regen
Ortszeit Stärke Spitze Richtung
km/h Bft. km/h Grad Sektor
Sa, 01.10. 14:00 25 4 47 250° W
Sa, 01.10. 8:00 6 1 17 180° S
Sa, 01.10. 2:00 4 1 7 100° O
Fr, 30.09. 20:00 2 1 17 160° S
Fr, 30.09. 14:00 7 2 14 260° W
Fr, 30.09. 8:00 6 1 7 110° O
Fr, 30.09. 2:00 2 1 7 180° S
Do, 29.09. 20:00 4 1 11 10° N
Ortszeit Stärke Spitze Richtung
km/h Bft. km/h Grad Sektor
Sa, 01.10. 14:00 25 4 43 250° W
Sa, 01.10. 13:50 25 4 - 250° W
Sa, 01.10. 13:40 25 4 - 240° SW
Sa, 01.10. 13:30 22 4 40 240° SW
Sa, 01.10. 13:20 22 4 - 240° SW
Sa, 01.10. 13:10 25 4 - 240° SW
Sa, 01.10. 13:00 22 4 40 230° SW
Sa, 01.10. 12:30 22 4 39 240° SW
Sa, 01.10. 12:00 22 4 47 240° SW
Sa, 01.10. 11:30 26 4 44 220° SW
Sa, 01.10. 11:00 18 3 36 240° SW
Ortszeit Untergrenze Bedeckung Gattung
total tief tief mittel hoch
Sa, 01.10. 14:00 270 m 7/8 7/8 - - -
Sa, 01.10. 8:00 1050 m 1/8 1/8 - - -
Sa, 01.10. 2:00 9000 m 1/8 0/8 - - -
Fr, 30.09. 20:00 - 0/8 0/8 - - -
Fr, 30.09. 14:00 720 m 6/8 6/8 - - -
Fr, 30.09. 8:00 3000 m 1/8 1/8 - - -
Fr, 30.09. 2:00 3000 m 7/8 7/8 - - -
Do, 29.09. 20:00 2400 m 5/8 5/8 - - -
Ortszeit Bedeckungsgrad in Achtel und Wolkenuntergrenze
Sa, 01.10. 14:00 7(270m)
Sa, 01.10. 13:50 7(270m)
Sa, 01.10. 13:40 7
Sa, 01.10. 13:30 8(270m)
Sa, 01.10. 13:20 8(270m)
Sa, 01.10. 13:10 7
Sa, 01.10. 13:00 7(300m)
Sa, 01.10. 12:30 7(330m)
Sa, 01.10. 12:00 7(330m)
Sa, 01.10. 11:30 3(360m)
Sa, 01.10. 11:00 4(420m) 5(870m)
Ortszeit Luftdruck NN (hPa) Tendenz (hPa in 3 Std.)
Sa, 01.10. 14:00 1012 + 0,2
Sa, 01.10. 8:00 1012 - 0,9
Sa, 01.10. 2:00 1014 0,0
Fr, 30.09. 20:00 1013 + 0,5
Fr, 30.09. 14:00 1012 - 0,1
Fr, 30.09. 8:00 1011 + 1,2
Fr, 30.09. 2:00 1009 + 1,1
Do, 29.09. 20:00 1006 + 1,7
Ortszeit Luftdruck NN (hPa) Tendenz (hPa in 3 Std.)
Sa, 01.10. 14:00 1012 + 0,2
Sa, 01.10. 13:50 1012 keine Meldung
Sa, 01.10. 13:40 1012 keine Meldung
Sa, 01.10. 13:30 1011 + 0,2
Sa, 01.10. 13:20 1011 keine Meldung
Sa, 01.10. 13:10 1011 keine Meldung
Sa, 01.10. 13:00 1011 + 0,1
Sa, 01.10. 12:30 1011 + 0,1
Sa, 01.10. 12:00 1012 0,0
Sa, 01.10. 11:30 1011 - 0,7
Sa, 01.10. 11:00 1011 - 0,3
Ortszeit Schneehöhe (cm)
Sa, 01.10. 14:00 0
Sa, 01.10. 8:00 0
Sa, 01.10. 2:00 0
Fr, 30.09. 20:00 0
Fr, 30.09. 14:00 0
Fr, 30.09. 8:00 0
Fr, 30.09. 2:00 0
Do, 29.09. 20:00 0
Ortszeit Schneehöhe (cm)
Sa, 01.10. 14:00 0
Sa, 01.10. 13:50 0
Sa, 01.10. 13:40 0
Sa, 01.10. 13:30 0
Sa, 01.10. 13:20 0
Sa, 01.10. 13:10 0
Sa, 01.10. 13:00 0
Sa, 01.10. 12:30 0
Sa, 01.10. 12:00 0
Sa, 01.10. 11:30 0
Sa, 01.10. 11:00 0
Link zu dieser Seite / Seite empfehlen

Das Wetter in ...